Time;durP1;ratioP1;P1;durP2;ratioP2;P2;SDS_P1;SDS_P2;PMS_P1;PMS_P2;Temp;Humidity;BMP_temperature;BMP_pressure;BME280_temperature;BME280_humidity;BME280_pressure;Samples;Min_cycle;Max_cycle;Signal;HPM_P1;HPM_P2
2021/07/13 00:01:26;;;;;;;;;;;20.80;99.90;;;;;;5051062;28;19916;-63
2021/07/13 00:03:53;;;;;;;;;;;20.80;99.90;;;;;;5050223;28;20216;-63
2021/07/13 00:06:19;;;;;;;;;;;20.80;99.90;;;;;;5049673;28;20414;-63
2021/07/13 00:08:45;;;;;;;;;;;20.80;99.90;;;;;;5050060;28;20203;-63
2021/07/13 00:11:10;;;;;;;;;;;20.80;73.60;;;;;;5050730;28;20341;-63
2021/07/13 00:13:36;;;;;;;;;;;20.80;15.80;;;;;;5050966;28;19919;-63
2021/07/13 00:16:02;;;;;;;;;;;20.80;21.30;;;;;;5050988;28;19971;-62
2021/07/13 00:18:27;;;;;;;;;;;20.80;85.10;;;;;;5049152;28;20285;-63
2021/07/13 00:20:53;;;;;;;;;;;20.80;90.50;;;;;;5050369;28;19909;-63
2021/07/13 00:23:18;;;;;;;;;;;20.80;96.30;;;;;;5050766;28;20362;-63
2021/07/13 00:25:44;;;;;;;;;;;20.80;90.90;;;;;;5050491;28;19962;-63
2021/07/13 00:28:09;;;;;;;;;;;20.80;52.40;;;;;;5049644;28;20413;-63
2021/07/13 00:30:35;;;;;;;;;;;20.80;14.10;;;;;;5050874;28;19919;-63
2021/07/13 00:33:00;;;;;;;;;;;20.80;1.00;;;;;;5050257;28;19936;-63
2021/07/13 00:35:26;;;;;;;;;;;20.80;1.00;;;;;;5050258;28;19908;-63
2021/07/13 00:37:51;;;;;;;;;;;20.70;1.00;;;;;;5049297;28;19970;-63
2021/07/13 00:40:18;;;;;;;;;;;20.70;1.00;;;;;;5050466;28;20451;-63
2021/07/13 00:42:48;;;;;;;;;;;20.70;1.00;;;;;;5041808;28;19920;-63
2021/07/13 00:45:13;;;;;;;;;;;20.70;14.50;;;;;;5050569;28;20397;-63
2021/07/13 00:47:39;;;;;;;;;;;20.60;39.00;;;;;;5048143;28;20051;-63
2021/07/13 00:50:05;;;;;;;;;;;20.50;99.90;;;;;;5049139;28;20367;-63
2021/07/13 00:52:31;;;;;;;;;;;20.50;99.90;;;;;;5049598;28;20318;-63
2021/07/13 00:54:57;;;;;;;;;;;20.50;99.90;;;;;;5050398;28;19949;-63
2021/07/13 00:57:22;;;;;;;;;;;20.40;99.90;;;;;;5049162;28;19971;-63
2021/07/13 00:59:48;;;;;;;;;;;20.40;99.90;;;;;;5049959;28;19944;-63
2021/07/13 01:02:14;;;;;;;;;;;20.30;99.90;;;;;;5049685;28;19913;-63
2021/07/13 01:04:42;;;;;;;;;;;20.30;1.00;;;;;;5037335;28;19920;-63
2021/07/13 01:07:09;;;;;;;;;;;20.20;1.00;;;;;;5029204;28;19913;-63
2021/07/13 01:09:41;;;;;;;;;;;20.20;1.00;;;;;;5029509;28;20483;-63
2021/07/13 01:12:25;;;;;;;;;;;20.20;1.00;;;;;;5029599;28;19909;-63
2021/07/13 01:14:55;;;;;;;;;;;20.20;1.00;;;;;;5032487;28;20180;-63
2021/07/13 01:17:28;;;;;;;;;;;20.20;99.90;;;;;;5047894;28;19927;-63
2021/07/13 01:19:56;;;;;;;;;;;20.10;99.90;;;;;;5048697;28;19913;-63
2021/07/13 01:22:22;;;;;;;;;;;20.10;1.00;;;;;;5049117;28;20660;-63
2021/07/13 01:25:07;;;;;;;;;;;20.20;1.00;;;;;;5049492;28;19909;-63
2021/07/13 01:27:33;;;;;;;;;;;20.20;50.40;;;;;;5047155;28;20369;-63
2021/07/13 01:30:00;;;;;;;;;;;20.20;1.00;;;;;;5049540;28;19962;-63
2021/07/13 01:32:28;;;;;;;;;;;20.20;99.90;;;;;;5048929;28;19913;-63
2021/07/13 01:35:00;;;;;;;;;;;20.10;1.00;;;;;;5048943;28;19909;-62
2021/07/13 01:37:26;;;;;;;;;;;20.20;1.00;;;;;;5048750;28;19920;-62
2021/07/13 01:39:52;;;;;;;;;;;20.20;99.90;;;;;;5049839;28;20329;-60
2021/07/13 01:42:18;;;;;;;;;;;20.10;1.00;;;;;;5049370;28;20285;-62
2021/07/13 01:44:45;;;;;;;;;;;20.00;1.00;;;;;;5049413;28;19920;-61
2021/07/13 01:47:11;;;;;;;;;;;20.00;1.00;;;;;;5049047;28;19908;-62
2021/07/13 01:49:37;;;;;;;;;;;20.00;99.90;;;;;;5047829;28;20331;-61
2021/07/13 01:52:03;;;;;;;;;;;20.00;99.90;;;;;;5048756;28;19916;-62
2021/07/13 01:54:32;;;;;;;;;;;20.00;99.90;;;;;;5048983;28;19913;-62
2021/07/13 01:56:58;;;;;;;;;;;20.00;99.90;;;;;;5048616;28;19909;-61
2021/07/13 01:59:25;;;;;;;;;;;20.00;99.90;;;;;;5047962;28;19916;-62
2021/07/13 02:01:53;;;;;;;;;;;20.00;99.90;;;;;;5049078;28;20296;-61
2021/07/13 02:04:19;;;;;;;;;;;20.00;1.00;;;;;;5048339;28;19913;-62
2021/07/13 02:06:45;;;;;;;;;;;20.00;1.00;;;;;;5039903;28;19913;-60
2021/07/13 02:09:14;;;;;;;;;;;19.90;1.00;;;;;;5048559;28;20346;-60
2021/07/13 02:11:43;;;;;;;;;;;19.90;1.00;;;;;;5048556;28;19916;-60
2021/07/13 02:14:09;;;;;;;;;;;20.00;1.00;;;;;;5048879;28;19974;-60
2021/07/13 02:16:35;;;;;;;;;;;19.90;1.00;;;;;;5048388;28;20285;-62
2021/07/13 02:19:00;;;;;;;;;;;20.00;1.00;;;;;;5047443;28;19924;-60
2021/07/13 02:21:26;;;;;;;;;;;19.90;1.00;;;;;;5047797;28;20357;-61
2021/07/13 02:23:51;;;;;;;;;;;19.90;1.00;;;;;;5048695;28;19959;-61
2021/07/13 02:26:21;;;;;;;;;;;19.90;1.00;;;;;;5048196;28;19912;-61
2021/07/13 02:28:49;;;;;;;;;;;19.90;1.00;;;;;;5047629;28;19963;-62
2021/07/13 02:31:22;;;;;;;;;;;19.90;1.00;;;;;;5048723;28;19908;-62
2021/07/13 02:33:51;;;;;;;;;;;19.90;1.00;;;;;;5048293;28;19939;-62
2021/07/13 02:36:19;;;;;;;;;;;19.90;1.00;;;;;;5047831;28;19909;-62
2021/07/13 02:38:45;;;;;;;;;;;19.90;1.00;;;;;;5047662;28;20286;-62
2021/07/13 02:41:13;;;;;;;;;;;19.90;1.00;;;;;;5048215;28;19992;-61
2021/07/13 02:43:38;;;;;;;;;;;19.90;1.00;;;;;;5048369;28;20372;-61
2021/07/13 02:46:05;;;;;;;;;;;19.80;1.00;;;;;;5048431;28;19913;-62
2021/07/13 02:48:30;;;;;;;;;;;19.80;1.00;;;;;;5047318;28;20003;-61
2021/07/13 02:50:56;;;;;;;;;;;19.90;1.00;;;;;;5047591;28;19996;-61
2021/07/13 02:53:24;;;;;;;;;;;19.80;1.00;;;;;;5046982;28;19940;-62
2021/07/13 02:55:50;;;;;;;;;;;19.80;1.00;;;;;;5048082;28;19924;-61
2021/07/13 02:58:16;;;;;;;;;;;19.80;1.00;;;;;;5047824;28;19920;-61
2021/07/13 03:00:42;;;;;;;;;;;19.80;1.00;;;;;;5048562;28;20003;-61
2021/07/13 03:03:08;;;;;;;;;;;19.80;1.00;;;;;;5048349;28;19999;-61
2021/07/13 03:05:34;;;;;;;;;;;19.80;1.00;;;;;;5048782;28;19909;-61
2021/07/13 03:08:01;;;;;;;;;;;19.80;1.00;;;;;;5047397;28;19913;-62
2021/07/13 03:10:27;;;;;;;;;;;19.80;1.00;;;;;;5048962;28;20200;-62
2021/07/13 03:12:54;;;;;;;;;;;19.80;1.00;;;;;;5047739;28;19958;-62
2021/07/13 03:15:27;;;;;;;;;;;19.70;1.00;;;;;;5048380;28;19917;-62
2021/07/13 03:17:54;;;;;;;;;;;19.70;1.00;;;;;;5047041;28;20065;-61
2021/07/13 03:20:20;;;;;;;;;;;19.60;1.00;;;;;;5047874;28;19913;-59
2021/07/13 03:22:46;;;;;;;;;;;19.50;1.00;;;;;;5047309;28;19909;-61
2021/07/13 03:25:15;;;;;;;;;;;19.50;1.00;;;;;;5048251;28;20147;-59
2021/07/13 03:27:41;;;;;;;;;;;19.50;1.00;;;;;;5047211;28;19915;-61
2021/07/13 03:30:07;;;;;;;;;;;19.30;1.00;;;;;;5048181;28;19913;-61
2021/07/13 03:32:33;;;;;;;;;;;19.30;1.00;;;;;;5047967;28;19921;-61
2021/07/13 03:34:59;;;;;;;;;;;19.30;1.00;;;;;;5047172;28;19920;-61
2021/07/13 03:37:25;;;;;;;;;;;19.30;1.00;;;;;;5046617;28;19921;-62
2021/07/13 03:39:50;;;;;;;;;;;19.20;1.00;;;;;;5049236;28;19960;-62
2021/07/13 03:42:17;;;;;;;;;;;19.20;1.00;;;;;;5042939;28;20277;-60
2021/07/13 03:44:43;;;;;;;;;;;19.10;1.00;;;;;;5051093;28;20274;-61
2021/07/13 03:47:13;;;;;;;;;;;19.10;1.00;;;;;;5051411;28;20007;-62
2021/07/13 03:49:39;;;;;;;;;;;19.10;1.00;;;;;;5049960;28;19916;-61
2021/07/13 03:52:05;;;;;;;;;;;19.00;1.00;;;;;;5050925;28;19931;-61
2021/07/13 03:54:30;;;;;;;;;;;18.90;1.00;;;;;;5051073;28;19913;-61
2021/07/13 03:56:56;;;;;;;;;;;18.90;1.00;;;;;;5044934;28;19913;-63
2021/07/13 03:59:21;;;;;;;;;;;18.90;1.00;;;;;;5039190;28;19913;-63
2021/07/13 04:01:47;;;;;;;;;;;18.80;1.00;;;;;;5051014;28;19935;-65
2021/07/13 04:04:12;;;;;;;;;;;18.80;1.00;;;;;;5050407;28;19966;-63
2021/07/13 04:06:38;;;;;;;;;;;18.80;1.00;;;;;;5049941;28;20457;-66
2021/07/13 04:09:04;;;;;;;;;;;18.80;1.00;;;;;;5050243;28;19919;-64
2021/07/13 04:11:30;;;;;;;;;;;18.80;1.00;;;;;;5050391;28;19948;-63
2021/07/13 04:13:55;;;;;;;;;;;18.80;1.00;;;;;;5050285;28;19952;-64
2021/07/13 04:16:21;;;;;;;;;;;18.80;1.00;;;;;;5050819;28;19963;-63
2021/07/13 04:18:46;;;;;;;;;;;18.80;1.00;;;;;;5049009;28;19970;-63
2021/07/13 04:21:12;;;;;;;;;;;18.80;1.00;;;;;;5049831;28;19920;-62
2021/07/13 04:23:37;;;;;;;;;;;18.80;1.00;;;;;;5050950;28;20021;-63
2021/07/13 04:26:03;;;;;;;;;;;18.90;1.00;;;;;;5050355;28;20444;-63
2021/07/13 04:28:31;;;;;;;;;;;18.90;1.00;;;;;;5049942;28;19909;-61
2021/07/13 04:30:59;;;;;;;;;;;18.90;1.00;;;;;;5050742;28;19916;-61
2021/07/13 04:33:25;;;;;;;;;;;18.90;1.00;;;;;;5049996;28;19912;-63
2021/07/13 04:35:51;;;;;;;;;;;18.90;1.00;;;;;;5050145;28;19913;-63
2021/07/13 04:38:17;;;;;;;;;;;18.90;1.00;;;;;;5049642;28;19912;-63
2021/07/13 04:40:42;;;;;;;;;;;18.90;1.00;;;;;;5050773;28;19965;-63
2021/07/13 04:43:08;;;;;;;;;;;18.90;1.00;;;;;;5049670;28;20420;-63
2021/07/13 04:45:33;;;;;;;;;;;18.90;1.00;;;;;;5050718;28;19909;-63
2021/07/13 04:47:59;;;;;;;;;;;19.00;1.00;;;;;;5044464;28;20428;-63
2021/07/13 04:50:24;;;;;;;;;;;19.10;1.00;;;;;;5049483;28;20009;-60
2021/07/13 04:52:50;;;;;;;;;;;19.30;1.00;;;;;;5049594;28;19924;-62
2021/07/13 04:55:17;;;;;;;;;;;19.40;1.00;;;;;;5050420;28;19916;-63
2021/07/13 04:57:45;;;;;;;;;;;19.60;1.00;;;;;;5048752;28;19960;-62
2021/07/13 05:00:12;;;;;;;;;;;19.60;1.00;;;;;;5050165;28;20458;-62
2021/07/13 05:02:37;;;;;;;;;;;19.70;1.00;;;;;;5050118;28;19948;-61
2021/07/13 05:05:04;;;;;;;;;;;19.80;1.00;;;;;;5059612;28;19909;-64
2021/07/13 05:07:29;;;;;;;;;;;19.90;1.00;;;;;;5048627;28;20488;-64
2021/07/13 05:09:55;;;;;;;;;;;20.00;1.00;;;;;;5049321;28;19909;-61
2021/07/13 05:12:20;;;;;;;;;;;20.10;1.00;;;;;;5048938;28;19912;-63
2021/07/13 05:14:46;;;;;;;;;;;20.30;1.00;;;;;;5049357;28;20377;-62
2021/07/13 05:17:12;;;;;;;;;;;20.50;1.00;;;;;;5049137;28;19974;-62
2021/07/13 05:19:39;;;;;;;;;;;20.90;99.90;;;;;;5048132;28;19909;-62
2021/07/13 05:22:07;;;;;;;;;;;21.40;1.00;;;;;;5048919;28;19967;-61
2021/07/13 05:24:33;;;;;;;;;;;21.80;1.00;;;;;;5049133;28;19909;-62
2021/07/13 05:26:58;;;;;;;;;;;22.10;1.00;;;;;;5048777;28;20014;-62
2021/07/13 05:29:25;;;;;;;;;;;22.40;1.00;;;;;;5048311;28;19909;-62
2021/07/13 05:31:50;;;;;;;;;;;22.60;1.00;;;;;;5047030;28;20327;-62
2021/07/13 05:34:16;;;;;;;;;;;22.60;1.00;;;;;;5048734;28;19909;-64
2021/07/13 05:36:41;;;;;;;;;;;22.70;99.90;;;;;;5033132;28;19913;-64
2021/07/13 05:39:08;;;;;;;;;;;22.60;99.90;;;;;;5028745;28;19917;-63
2021/07/13 05:41:33;;;;;;;;;;;22.60;99.90;;;;;;5028864;28;19916;-63
2021/07/13 05:43:59;;;;;;;;;;;22.70;99.90;;;;;;5028879;28;19917;-63
2021/07/13 05:46:24;;;;;;;;;;;22.80;81.10;;;;;;5028907;28;19909;-62
2021/07/13 05:48:50;;;;;;;;;;;22.90;1.00;;;;;;5028102;28;20003;-62
2021/07/13 05:51:16;;;;;;;;;;;23.30;1.00;;;;;;5028267;28;19913;-62
2021/07/13 05:53:41;;;;;;;;;;;23.50;1.00;;;;;;5029005;28;20382;-62
2021/07/13 05:56:07;;;;;;;;;;;23.50;1.00;;;;;;5039180;28;20694;-63
2021/07/13 05:58:34;;;;;;;;;;;23.40;1.00;;;;;;5030595;28;19913;-62
2021/07/13 06:00:59;;;;;;;;;;;23.10;1.00;;;;;;5035071;28;19960;-62
2021/07/13 06:03:24;;;;;;;;;;;23.00;1.00;;;;;;5038177;28;20368;-62
2021/07/13 06:05:50;;;;;;;;;;;22.80;1.00;;;;;;5039368;28;19908;-62
2021/07/13 06:08:16;;;;;;;;;;;22.60;1.00;;;;;;5035432;28;19909;-62
2021/07/13 06:10:41;;;;;;;;;;;22.40;1.00;;;;;;5038710;28;19963;-63
2021/07/13 06:13:07;;;;;;;;;;;22.30;1.00;;;;;;5035611;28;19924;-62
2021/07/13 06:15:38;;;;;;;;;;;22.10;1.00;;;;;;5047392;28;19925;-65
2021/07/13 06:18:03;;;;;;;;;;;21.90;99.90;;;;;;5036766;28;19920;-62
2021/07/13 06:20:29;;;;;;;;;;;21.70;99.90;;;;;;5039599;28;19971;-62
2021/07/13 06:22:54;;;;;;;;;;;21.60;1.00;;;;;;5037801;28;19955;-62
2021/07/13 06:25:20;;;;;;;;;;;21.50;1.00;;;;;;5036913;28;19992;-64
2021/07/13 06:27:45;;;;;;;;;;;21.40;99.90;;;;;;5036329;28;20201;-62
2021/07/13 06:30:13;;;;;;;;;;;21.40;99.90;;;;;;5040048;28;20091;-64
2021/07/13 06:32:39;;;;;;;;;;;21.50;1.00;;;;;;5047145;28;20341;-64
2021/07/13 06:35:05;;;;;;;;;;;21.60;1.00;;;;;;5047738;28;19950;-62
2021/07/13 06:37:30;;;;;;;;;;;21.60;99.90;;;;;;5046998;28;19924;-63
2021/07/13 06:39:56;;;;;;;;;;;21.70;99.90;;;;;;5048269;28;19914;-62
2021/07/13 06:42:21;;;;;;;;;;;21.90;99.90;;;;;;5039364;28;20392;-63
2021/07/13 06:44:46;;;;;;;;;;;21.90;1.00;;;;;;5048150;28;19931;-63
2021/07/13 06:47:12;;;;;;;;;;;21.90;1.00;;;;;;5048091;28;19958;-63
2021/07/13 06:49:37;;;;;;;;;;;21.70;1.00;;;;;;5043841;28;20003;-63
2021/07/13 06:52:03;;;;;;;;;;;21.50;1.00;;;;;;5027822;28;19909;-63
2021/07/13 06:54:29;;;;;;;;;;;21.30;1.00;;;;;;5028710;28;20381;-63
2021/07/13 06:56:54;;;;;;;;;;;21.20;53.10;;;;;;5027553;28;19920;-62
2021/07/13 06:59:20;;;;;;;;;;;21.00;1.00;;;;;;5027139;28;20007;-63
2021/07/13 07:01:46;;;;;;;;;;;20.70;99.90;;;;;;5028375;28;20289;-63
2021/07/13 07:04:11;;;;;;;;;;;20.50;1.00;;;;;;5047138;28;19921;-63
2021/07/13 07:06:37;;;;;;;;;;;20.30;38.60;;;;;;5048448;28;19908;-62
2021/07/13 07:09:03;;;;;;;;;;;20.20;99.90;;;;;;5046185;28;20285;-62
2021/07/13 07:11:28;;;;;;;;;;;19.90;99.90;;;;;;5045711;28;19913;-62
2021/07/13 07:13:53;;;;;;;;;;;19.60;1.00;;;;;;5047534;28;19908;-62
2021/07/13 07:16:19;;;;;;;;;;;19.50;1.00;;;;;;5051774;28;19951;-63
2021/07/13 07:18:44;;;;;;;;;;;19.40;1.00;;;;;;5050061;28;20346;-63
2021/07/13 07:21:11;;;;;;;;;;;19.50;1.00;;;;;;5051654;28;20579;-63
2021/07/13 07:23:37;;;;;;;;;;;19.70;1.00;;;;;;5051105;28;20263;-63
2021/07/13 07:26:02;;;;;;;;;;;19.90;1.00;;;;;;5051650;28;20008;-64
2021/07/13 07:28:28;;;;;;;;;;;20.40;1.00;;;;;;5050659;28;19923;-63
2021/07/13 07:30:54;;;;;;;;;;;21.50;1.00;;;;;;5051901;28;20003;-63
2021/07/13 07:33:19;;;;;;;;;;;23.50;99.90;;;;;;5051008;28;19909;-64
2021/07/13 07:35:45;;;;;;;;;;;25.10;99.90;;;;;;5051859;28;19916;-64
2021/07/13 07:38:11;;;;;;;;;;;26.60;99.90;;;;;;5049762;28;19923;-64
2021/07/13 07:40:37;;;;;;;;;;;27.80;1.00;;;;;;5051438;28;19943;-64
2021/07/13 07:43:02;;;;;;;;;;;28.50;1.00;;;;;;5042592;28;19960;-63
2021/07/13 07:45:28;;;;;;;;;;;28.90;99.90;;;;;;5051550;28;19909;-63
2021/07/13 07:47:53;;;;;;;;;;;29.70;99.90;;;;;;5050736;28;19916;-63
2021/07/13 07:50:20;;;;;;;;;;;30.50;99.90;;;;;;5051430;28;19916;-63
2021/07/13 07:52:45;;;;;;;;;;;31.00;99.90;;;;;;5050530;28;19955;-63
2021/07/13 07:55:12;;;;;;;;;;;31.70;99.90;;;;;;5050770;28;20524;-63
2021/07/13 07:57:38;;;;;;;;;;;33.30;99.90;;;;;;5049753;28;19967;-63
2021/07/13 08:00:07;;;;;;;;;;;35.20;99.90;;;;;;5051520;28;19909;-63
2021/07/13 08:02:32;;;;;;;;;;;37.20;99.90;;;;;;5050790;28;19909;-63
2021/07/13 08:04:59;;;;;;;;;;;37.60;99.90;;;;;;5050697;28;19909;-63
2021/07/13 08:07:25;;;;;;;;;;;36.40;99.90;;;;;;5049261;28;19916;-63
2021/07/13 08:09:51;;;;;;;;;;;34.90;99.90;;;;;;5051062;28;20449;-63
2021/07/13 08:12:16;;;;;;;;;;;32.80;99.90;;;;;;5049770;28;19992;-61
2021/07/13 08:14:42;;;;;;;;;;;30.80;99.90;;;;;;5050960;28;20388;-61
2021/07/13 08:17:07;;;;;;;;;;;29.30;99.90;;;;;;5050331;28;19912;-63
2021/07/13 08:19:38;;;;;;;;;;;28.10;99.90;;;;;;5049400;28;19971;-62
2021/07/13 08:22:07;;;;;;;;;;;27.00;99.90;;;;;;5049867;28;19909;-62
2021/07/13 08:24:33;;;;;;;;;;;26.10;99.90;;;;;;5050732;28;19917;-63
2021/07/13 08:26:59;;;;;;;;;;;25.40;99.90;;;;;;5049236;28;20384;-63
2021/07/13 08:29:24;;;;;;;;;;;24.80;99.90;;;;;;5049765;28;19908;-62
2021/07/13 08:31:55;;;;;;;;;;;24.30;1.00;;;;;;5050112;28;20324;-62
2021/07/13 08:34:20;;;;;;;;;;;24.10;1.00;;;;;;5050489;28;19909;-61
2021/07/13 08:36:46;;;;;;;;;;;23.70;1.00;;;;;;5050229;28;19909;-62
2021/07/13 08:39:11;;;;;;;;;;;23.40;1.00;;;;;;5048649;28;20337;-62
2021/07/13 08:41:37;;;;;;;;;;;23.30;99.90;;;;;;5049915;28;19962;-62
2021/07/13 08:44:02;;;;;;;;;;;23.30;99.90;;;;;;5050089;28;20373;-62
2021/07/13 08:46:28;;;;;;;;;;;23.20;99.90;;;;;;5050385;28;19909;-63
2021/07/13 08:48:54;;;;;;;;;;;22.90;1.00;;;;;;5048897;28;20365;-63
2021/07/13 08:51:20;;;;;;;;;;;22.80;1.00;;;;;;5050020;28;19909;-63
2021/07/13 08:53:46;;;;;;;;;;;22.70;99.90;;;;;;5048892;28;20345;-63
2021/07/13 08:56:11;;;;;;;;;;;22.50;61.50;;;;;;5049822;28;19913;-62
2021/07/13 08:58:37;;;;;;;;;;;22.20;1.00;;;;;;5049169;28;19932;-63
2021/07/13 09:01:03;;;;;;;;;;;22.20;1.00;;;;;;5050395;28;20098;-63
2021/07/13 09:03:32;;;;;;;;;;;21.70;99.90;;;;;;5049252;28;19909;-63
2021/07/13 09:06:02;;;;;;;;;;;21.50;1.00;;;;;;5042048;28;19947;-63
2021/07/13 09:08:31;;;;;;;;;;;20.90;1.00;;;;;;5048001;28;19916;-63
2021/07/13 09:10:58;;;;;;;;;;;20.50;99.90;;;;;;5049311;28;20019;-63
2021/07/13 09:13:25;;;;;;;;;;;20.20;1.00;;;;;;5049471;28;20029;-63
2021/07/13 09:15:57;;;;;;;;;;;20.00;1.00;;;;;;5050096;28;19996;-63
2021/07/13 09:18:32;;;;;;;;;;;19.90;1.00;;;;;;5048167;28;19948;-63
2021/07/13 09:21:08;;;;;;;;;;;19.50;1.00;;;;;;5049416;28;19975;-63
2021/07/13 09:23:33;;;;;;;;;;;19.20;1.00;;;;;;5048586;28;19913;-63
2021/07/13 09:25:59;;;;;;;;;;;19.00;1.00;;;;;;5049854;28;19973;-63
2021/07/13 09:28:24;;;;;;;;;;;18.70;1.00;;;;;;5048331;28;20400;-62
2021/07/13 09:30:54;;;;;;;;;;;18.50;1.00;;;;;;5049945;28;19916;-62
2021/07/13 09:33:20;;;;;;;;;;;18.40;1.00;;;;;;5048581;28;19967;-62
2021/07/13 09:36:04;;;;;;;;;;;18.40;1.00;;;;;;5049676;28;19909;-62
2021/07/13 09:38:31;;;;;;;;;;;18.40;1.00;;;;;;5046498;28;19920;-62
2021/07/13 09:41:04;;;;;;;;;;;18.60;1.00;;;;;;5049010;28;19948;-61
2021/07/13 09:43:40;;;;;;;;;;;18.80;1.00;;;;;;5049042;28;20008;-61
2021/07/13 09:46:24;;;;;;;;;;;19.20;1.00;;;;;;5049647;28;19970;-62
2021/07/13 09:49:09;;;;;;;;;;;19.40;1.00;;;;;;5048426;28;19913;-62
2021/07/13 09:51:34;;;;;;;;;;;19.50;1.00;;;;;;5049170;28;19968;-64
2021/07/13 09:54:00;;;;;;;;;;;19.40;1.00;;;;;;5048548;28;20105;-64
2021/07/13 09:56:42;;;;;;;;;;;19.40;1.00;;;;;;5048738;28;20357;-64
2021/07/13 09:59:08;;;;;;;;;;;19.30;1.00;;;;;;5048025;28;20146;-64
2021/07/13 10:01:34;;;;;;;;;;;19.00;99.90;;;;;;5048990;28;20392;-63
2021/07/13 10:04:00;;;;;;;;;;;18.80;99.90;;;;;;5048220;28;19986;-64
2021/07/13 10:06:25;;;;;;;;;;;18.70;99.90;;;;;;5048925;28;20234;-64
2021/07/13 10:08:51;;;;;;;;;;;18.50;1.00;;;;;;5047344;28;20007;-64
2021/07/13 10:11:17;;;;;;;;;;;18.20;1.00;;;;;;5048187;28;20007;-64
2021/07/13 10:13:43;;;;;;;;;;;17.90;1.00;;;;;;5048404;28;19999;-62
2021/07/13 10:16:09;;;;;;;;;;;17.70;1.00;;;;;;5048671;28;20362;-62
2021/07/13 10:18:35;;;;;;;;;;;17.60;1.00;;;;;;5047318;28;19913;-62
2021/07/13 10:21:00;;;;;;;;;;;17.60;1.00;;;;;;5048426;28;19909;-62
2021/07/13 10:23:26;;;;;;;;;;;17.60;1.00;;;;;;5046870;28;19959;-62
2021/07/13 10:25:54;;;;;;;;;;;17.50;1.00;;;;;;5048178;28;19947;-62
2021/07/13 10:28:21;;;;;;;;;;;17.40;1.00;;;;;;5047543;28;19913;-65
2021/07/13 10:30:49;;;;;;;;;;;17.40;1.00;;;;;;5048531;28;19909;-61
2021/07/13 10:33:28;;;;;;;;;;;17.40;1.00;;;;;;5047669;28;20366;-62
2021/07/13 10:35:53;;;;;;;;;;;17.60;1.00;;;;;;5048326;28;19915;-62
2021/07/13 10:38:23;;;;;;;;;;;17.60;1.00;;;;;;5046402;28;19999;-62
2021/07/13 10:40:51;;;;;;;;;;;17.70;1.00;;;;;;5047954;28;20094;-61
2021/07/13 10:43:17;;;;;;;;;;;17.70;1.00;;;;;;5038900;28;20373;-62
2021/07/13 10:45:43;;;;;;;;;;;17.60;1.00;;;;;;5047876;28;19995;-62
2021/07/13 10:48:10;;;;;;;;;;;17.50;1.00;;;;;;5047320;28;19951;-63
2021/07/13 10:50:40;;;;;;;;;;;17.50;1.00;;;;;;5052341;28;19909;-63
2021/07/13 10:53:07;;;;;;;;;;;17.50;1.00;;;;;;5050933;28;20026;-62
2021/07/13 10:55:37;;;;;;;;;;;17.50;1.00;;;;;;5051708;28;20182;-63
2021/07/13 10:58:11;;;;;;;;;;;17.60;1.00;;;;;;5050411;28;20354;-63
2021/07/13 11:00:40;;;;;;;;;;;17.70;1.00;;;;;;5052274;28;19916;-61
2021/07/13 11:03:05;;;;;;;;;;;17.90;1.00;;;;;;5051558;28;20295;-62
2021/07/13 11:05:43;;;;;;;;;;;18.00;1.00;;;;;;5051737;28;19971;-63
2021/07/13 11:08:09;;;;;;;;;;;18.40;1.00;;;;;;5050185;28;19967;-62
2021/07/13 11:10:37;;;;;;;;;;;18.60;1.00;;;;;;5050628;28;19909;-62
2021/07/13 11:13:21;;;;;;;;;;;18.80;1.00;;;;;;5051500;28;19916;-63
2021/07/13 11:15:47;;;;;;;;;;;18.90;1.00;;;;;;5052185;28;19909;-62
2021/07/13 11:18:24;;;;;;;;;;;19.20;1.00;;;;;;5050606;28;19923;-62
2021/07/13 11:20:50;;;;;;;;;;;19.30;1.00;;;;;;5051717;28;19915;-63
2021/07/13 11:23:25;;;;;;;;;;;19.30;1.00;;;;;;5051181;28;19912;-63
2021/07/13 11:26:01;;;;;;;;;;;19.30;1.00;;;;;;5052107;28;19916;-62
2021/07/13 11:28:26;;;;;;;;;;;19.10;1.00;;;;;;5050948;28;19963;-63
2021/07/13 11:30:52;;;;;;;;;;;18.90;1.00;;;;;;5051601;28;19952;-63
2021/07/13 11:33:24;;;;;;;;;;;18.80;1.00;;;;;;5051085;28;19919;-63
2021/07/13 11:35:51;;;;;;;;;;;18.60;99.90;;;;;;5051671;28;19987;-62
2021/07/13 11:38:24;;;;;;;;;;;18.50;1.00;;;;;;5050587;28;19962;-63
2021/07/13 11:41:09;;;;;;;;;;;18.40;1.00;;;;;;5051733;28;20054;-62
2021/07/13 11:43:35;;;;;;;;;;;18.30;1.00;;;;;;5051085;28;19932;-63
2021/07/13 11:46:13;;;;;;;;;;;18.20;99.90;;;;;;5051678;28;19912;-63
2021/07/13 11:48:40;;;;;;;;;;;18.10;99.90;;;;;;5050091;28;19958;-63
2021/07/13 11:51:08;;;;;;;;;;;18.10;1.00;;;;;;5051318;28;19951;-63
2021/07/13 11:53:34;;;;;;;;;;;18.20;99.90;;;;;;5050139;28;19920;-63
2021/07/13 11:56:00;;;;;;;;;;;18.30;99.90;;;;;;5051099;28;20342;-63
2021/07/13 11:58:26;;;;;;;;;;;18.30;99.90;;;;;;5050450;28;20426;-63
2021/07/13 12:00:52;;;;;;;;;;;18.40;99.90;;;;;;5050490;28;20350;-63
2021/07/13 12:03:30;;;;;;;;;;;18.40;99.90;;;;;;5050548;28;19917;-62
2021/07/13 12:06:09;;;;;;;;;;;18.40;99.90;;;;;;5042962;28;20337;-63
2021/07/13 12:08:35;;;;;;;;;;;18.40;99.90;;;;;;5049788;28;20289;-63
2021/07/13 12:11:01;;;;;;;;;;;18.50;99.90;;;;;;5050590;28;19912;-62
2021/07/13 12:13:26;;;;;;;;;;;18.50;99.90;;;;;;5050676;28;19920;-63
2021/07/13 12:15:52;;;;;;;;;;;18.60;99.90;;;;;;5050924;28;19920;-63
2021/07/13 12:18:18;;;;;;;;;;;18.70;99.90;;;;;;5050002;28;20346;-64
2021/07/13 12:20:43;;;;;;;;;;;18.80;99.90;;;;;;5050468;28;19913;-62
2021/07/13 12:23:09;;;;;;;;;;;18.80;99.90;;;;;;5049870;28;20049;-63
2021/07/13 12:25:35;;;;;;;;;;;18.90;99.90;;;;;;5050701;28;19912;-63
2021/07/13 12:28:12;;;;;;;;;;;19.00;37.10;;;;;;5049208;28;19973;-63
2021/07/13 12:30:38;;;;;;;;;;;19.10;27.20;;;;;;5051168;28;19909;-62
2021/07/13 12:33:04;;;;;;;;;;;19.20;1.00;;;;;;5050368;28;19916;-63
2021/07/13 12:35:30;;;;;;;;;;;19.30;1.00;;;;;;5050612;28;19909;-62
2021/07/13 12:37:55;;;;;;;;;;;19.40;99.90;;;;;;5049339;28;19916;-62
2021/07/13 12:40:27;;;;;;;;;;;19.60;99.90;;;;;;5050774;28;20304;-63
2021/07/13 12:42:52;;;;;;;;;;;19.70;99.90;;;;;;5050100;28;19970;-62
2021/07/13 12:45:20;;;;;;;;;;;19.90;99.90;;;;;;5050845;28;20454;-62
2021/07/13 12:47:50;;;;;;;;;;;20.00;99.90;;;;;;5050198;28;20050;-63
2021/07/13 12:50:15;;;;;;;;;;;20.00;1.00;;;;;;5050488;28;19924;-63
2021/07/13 12:52:59;;;;;;;;;;;20.10;1.00;;;;;;5049452;28;19953;-62
2021/07/13 12:55:31;;;;;;;;;;;20.10;1.00;;;;;;5050393;28;19909;-63
2021/07/13 12:58:08;;;;;;;;;;;20.20;54.20;;;;;;5049172;28;19913;-63
2021/07/13 13:00:34;;;;;;;;;;;20.20;1.00;;;;;;5050682;28;19952;-63
2021/07/13 13:03:06;;;;;;;;;;;20.10;1.00;;;;;;5046430;28;20350;-63
2021/07/13 13:05:42;;;;;;;;;;;20.20;1.00;;;;;;5044449;28;19917;-62
2021/07/13 13:08:07;;;;;;;;;;;20.30;99.90;;;;;;5028384;28;20012;-62
2021/07/13 13:10:36;;;;;;;;;;;20.40;99.90;;;;;;5030451;28;20008;-61
2021/07/13 13:13:02;;;;;;;;;;;20.60;1.00;;;;;;5029312;28;19964;-61
2021/07/13 13:15:28;;;;;;;;;;;20.60;99.90;;;;;;5029766;28;19959;-62
2021/07/13 13:17:54;;;;;;;;;;;20.80;1.00;;;;;;5028648;28;19916;-63
2021/07/13 13:20:20;;;;;;;;;;;20.80;1.00;;;;;;5043758;28;19909;-63
2021/07/13 13:22:50;;;;;;;;;;;20.90;1.00;;;;;;5048756;28;19909;-62
2021/07/13 13:25:16;;;;;;;;;;;20.90;1.00;;;;;;5050075;28;19963;-63
2021/07/13 13:27:42;;;;;;;;;;;20.80;1.00;;;;;;5047933;28;19925;-64
2021/07/13 13:30:09;;;;;;;;;;;20.50;1.00;;;;;;5049891;28;19909;-63
2021/07/13 13:32:36;;;;;;;;;;;20.50;1.00;;;;;;5049632;28;20434;-64
2021/07/13 13:35:02;;;;;;;;;;;20.40;1.00;;;;;;5048871;28;19969;-63
2021/07/13 13:37:35;;;;;;;;;;;20.30;39.10;;;;;;5048244;28;20353;-63
2021/07/13 13:40:00;;;;;;;;;;;20.30;37.80;;;;;;5049539;28;19909;-63
2021/07/13 13:42:26;;;;;;;;;;;20.50;99.90;;;;;;5040879;28;19983;-63
2021/07/13 13:44:51;;;;;;;;;;;20.60;83.60;;;;;;5049769;28;20354;-63
2021/07/13 13:47:16;;;;;;;;;;;21.00;9.20;;;;;;5049005;28;20059;-63
2021/07/13 13:49:42;;;;;;;;;;;21.20;1.00;;;;;;5048388;28;20357;-64
2021/07/13 13:52:07;;;;;;;;;;;21.40;99.90;;;;;;5048983;28;19909;-64
2021/07/13 13:54:33;;;;;;;;;;;21.50;99.90;;;;;;5049690;28;20337;-63
2021/07/13 13:56:58;;;;;;;;;;;21.30;92.40;;;;;;5048900;28;19908;-64
2021/07/13 13:59:26;;;;;;;;;;;20.80;30.20;;;;;;5048674;28;19916;-63
2021/07/13 14:01:52;;;;;;;;;;;20.60;75.00;;;;;;5049264;28;19917;-63
2021/07/13 14:04:17;;;;;;;;;;;20.40;99.90;;;;;;5048342;28;19912;-63
2021/07/13 14:06:42;;;;;;;;;;;20.10;1.00;;;;;;5048871;28;19955;-62
2021/07/13 14:09:08;;;;;;;;;;;19.90;1.00;;;;;;5047599;28;19912;-60
2021/07/13 14:11:34;;;;;;;;;;;19.60;1.00;;;;;;5038373;28;19909;-61
2021/07/13 14:14:00;;;;;;;;;;;19.40;1.00;;;;;;5029026;28;20387;-62
2021/07/13 14:16:25;;;;;;;;;;;19.40;1.00;;;;;;5029197;28;19909;-62
2021/07/13 14:18:51;;;;;;;;;;;19.30;99.90;;;;;;5029261;28;19913;-62
2021/07/13 14:21:16;;;;;;;;;;;19.20;99.90;;;;;;5049015;28;19912;-62
2021/07/13 14:23:42;;;;;;;;;;;19.00;1.00;;;;;;5047938;28;19989;-60
2021/07/13 14:26:07;;;;;;;;;;;18.90;1.00;;;;;;5048440;28;20065;-62